Terminal Aerodrome Forecast
Issued by NWS

Home | Current Version | Previous Version | Text Only | Print | Product List | Glossary On
Versions: 1 2 3 4 5 6 7 8 9 10 11 12 13 14 15
000
FTUS46 KOTX 171139
TAFPUW
TAF
KPUW 171139Z 1712/1812 12004KT P6SM -RA SCT025 OVC040
     FM171800 20007KT P6SM -RA SCT018 OVC030
     FM180000 20008KT 5SM RA BKN009 OVC015
     FM180700 24017G26KT P6SM VCSH SCT015 BKN060=

USA.gov is the U.S. government's official web portal to all federal, state and local government web resources and services.